createdAt,value
2022-09-21T00:00:13.000Z,100.00
2022-09-21T00:03:05.028Z,100.00
2022-09-21T00:05:38.331Z,100.00
2022-09-21T00:08:12.881Z,100.00
2022-09-21T00:10:50.340Z,100.00
2022-09-21T00:13:24.169Z,100.00
2022-09-21T00:15:56.369Z,100.00
2022-09-21T00:18:28.724Z,100.00
2022-09-21T00:21:00.776Z,100.00
2022-09-21T00:23:32.536Z,100.00
2022-09-21T00:26:13.409Z,100.00
2022-09-21T00:28:45.615Z,100.00
2022-09-21T00:31:18.822Z,100.00
2022-09-21T00:33:51.343Z,100.00
2022-09-21T00:36:25.027Z,100.00
2022-09-21T00:38:58.828Z,100.00
2022-09-21T00:41:33.751Z,100.00
2022-09-21T00:44:29.397Z,100.00
2022-09-21T00:47:05.942Z,100.00
2022-09-21T00:49:40.061Z,100.00
2022-09-21T00:52:14.915Z,100.00
2022-09-21T00:54:50.335Z,100.00
2022-09-21T00:57:25.387Z,100.00
2022-09-21T01:00:02.803Z,100.00
2022-09-21T01:02:35.335Z,100.00
2022-09-21T01:05:09.486Z,100.00
2022-09-21T01:07:46.210Z,100.00
2022-09-21T01:10:21.093Z,100.00
2022-09-21T01:13:06.388Z,100.00
2022-09-21T01:15:49.389Z,100.00
2022-09-21T01:18:29.030Z,100.00
2022-09-21T01:21:21.052Z,100.00
2022-09-21T01:24:19.799Z,100.00
2022-09-21T01:27:20.574Z,100.00
2022-09-21T01:29:58.296Z,100.00
2022-09-21T01:32:34.497Z,100.00
2022-09-21T01:35:10.539Z,100.00
2022-09-21T01:37:46.483Z,100.00
2022-09-21T01:40:23.951Z,100.00
2022-09-21T01:42:57.513Z,100.00
2022-09-21T01:45:33.596Z,100.00
2022-09-21T01:48:06.781Z,100.00
2022-09-21T01:50:42.844Z,100.00
2022-09-21T01:53:20.529Z,100.00
2022-09-21T01:55:56.498Z,100.00
2022-09-21T01:58:33.242Z,100.00
2022-09-21T02:01:08.077Z,100.00
2022-09-21T02:03:44.771Z,100.00
2022-09-21T02:06:19.056Z,100.00
2022-09-21T02:08:51.285Z,100.00
2022-09-21T02:11:23.352Z,100.00
2022-09-21T02:13:56.475Z,100.00
2022-09-21T02:16:39.760Z,100.00
2022-09-21T02:19:23.859Z,100.00
2022-09-21T02:22:05.136Z,100.00
2022-09-21T02:24:43.475Z,100.00
2022-09-21T02:27:25.835Z,100.00
2022-09-21T02:30:06.745Z,100.00
2022-09-21T02:32:50.410Z,100.00
2022-09-21T02:35:32.745Z,100.00
2022-09-21T02:38:13.001Z,100.00
2022-09-21T02:40:51.218Z,100.00
2022-09-21T02:43:29.409Z,100.00
2022-09-21T02:46:08.450Z,100.00
2022-09-21T02:48:45.724Z,100.00
2022-09-21T02:51:22.246Z,100.00
2022-09-21T02:53:57.474Z,100.00
2022-09-21T02:56:31.773Z,100.00
2022-09-21T02:59:06.701Z,100.00
2022-09-21T03:01:40.933Z,100.00
2022-09-21T03:04:13.180Z,100.00
2022-09-21T03:06:44.940Z,100.00
2022-09-21T03:09:17.324Z,100.00
2022-09-21T03:11:49.664Z,100.00
2022-09-21T03:14:23.120Z,100.00
2022-09-21T03:16:54.886Z,100.00
2022-09-21T03:19:26.910Z,100.00
2022-09-21T03:22:00.220Z,100.00
2022-09-21T03:24:53.785Z,100.00
2022-09-21T03:27:25.979Z,100.00
2022-09-21T03:30:01.295Z,100.00
2022-09-21T03:32:34.201Z,100.00
2022-09-21T03:35:07.107Z,100.00
2022-09-21T03:37:41.283Z,100.00
2022-09-21T03:40:14.678Z,100.00
2022-09-21T03:42:46.745Z,100.00
2022-09-21T03:45:19.145Z,100.00
2022-09-21T03:47:51.268Z,100.00
2022-09-21T03:50:23.235Z,100.00
2022-09-21T03:52:55.286Z,100.00
2022-09-21T03:55:29.875Z,100.00
2022-09-21T03:58:02.083Z,100.00
2022-09-21T04:00:34.973Z,100.00
2022-09-21T04:03:07.896Z,100.00
2022-09-21T04:05:41.153Z,100.00
2022-09-21T04:08:13.018Z,100.00
2022-09-21T04:10:44.962Z,100.00
2022-09-21T04:13:16.806Z,100.00
2022-09-21T04:15:48.629Z,100.00
2022-09-21T04:18:20.408Z,100.00
2022-09-21T04:20:52.930Z,100.00
2022-09-21T04:23:24.820Z,100.00
2022-09-21T04:25:57.641Z,100.00
2022-09-21T04:28:29.887Z,100.00
2022-09-21T04:31:01.894Z,100.00
2022-09-21T04:33:33.840Z,100.00
2022-09-21T04:36:06.548Z,100.00
2022-09-21T04:38:38.417Z,100.00
2022-09-21T04:41:10.538Z,100.00
2022-09-21T04:43:44.582Z,100.00
2022-09-21T04:46:18.736Z,100.00
2022-09-21T04:48:51.927Z,100.00
2022-09-21T04:51:24.162Z,100.00
2022-09-21T04:53:56.813Z,100.00
2022-09-21T04:56:28.638Z,100.00
2022-09-21T04:59:00.646Z,100.00
2022-09-21T05:01:32.600Z,100.00
2022-09-21T05:04:05.018Z,100.00
2022-09-21T05:06:36.875Z,100.00
2022-09-21T05:09:27.131Z,100.00
2022-09-21T05:11:58.918Z,100.00
2022-09-21T05:14:30.768Z,100.00
2022-09-21T05:17:02.608Z,100.00
2022-09-21T05:19:34.403Z,100.00
2022-09-21T05:22:06.503Z,100.00
2022-09-21T05:24:38.381Z,100.00
2022-09-21T05:27:10.235Z,100.00
2022-09-21T05:29:43.355Z,100.00
2022-09-21T05:32:23.236Z,100.00
2022-09-21T05:35:06.648Z,100.00
2022-09-21T05:37:49.490Z,100.00
2022-09-21T05:40:22.816Z,100.00
2022-09-21T05:42:56.509Z,100.00
2022-09-21T05:45:29.905Z,100.00
2022-09-21T05:48:14.343Z,100.00
2022-09-21T05:50:56.069Z,100.00
2022-09-21T05:53:41.329Z,100.00
2022-09-21T05:56:23.636Z,100.00
2022-09-21T05:59:02.288Z,100.00
2022-09-21T06:01:47.471Z,100.00
2022-09-21T06:04:20.247Z,100.00
2022-09-21T06:06:52.594Z,100.00
2022-09-21T06:09:27.936Z,100.00
2022-09-21T06:11:59.828Z,100.00
2022-09-21T06:14:32.347Z,100.00
2022-09-21T06:17:05.456Z,100.00
2022-09-21T06:19:37.252Z,100.00
2022-09-21T06:22:09.110Z,100.00
2022-09-21T06:24:40.874Z,100.00
2022-09-21T06:27:12.997Z,100.00
2022-09-21T06:29:44.820Z,100.00
2022-09-21T06:32:16.647Z,100.00
2022-09-21T06:34:49.921Z,100.00
2022-09-21T06:37:21.743Z,100.00
2022-09-21T06:39:53.502Z,100.00
2022-09-21T06:42:25.380Z,100.00
2022-09-21T06:44:57.209Z,100.00
2022-09-21T06:47:29.010Z,100.00
2022-09-21T06:50:00.929Z,100.00
2022-09-21T06:52:33.305Z,100.00
2022-09-21T06:55:05.697Z,100.00
2022-09-21T06:57:38.693Z,100.00
2022-09-21T07:00:13.609Z,100.00
2022-09-21T07:02:47.000Z,100.00
2022-09-21T07:05:18.853Z,100.00
2022-09-21T07:07:53.721Z,100.00
2022-09-21T07:10:25.923Z,100.00
2022-09-21T07:13:03.437Z,100.00
2022-09-21T07:15:36.585Z,100.00
2022-09-21T07:18:15.330Z,100.00
2022-09-21T07:20:49.183Z,100.00
2022-09-21T07:23:22.871Z,100.00
2022-09-21T07:25:56.237Z,100.00
2022-09-21T07:28:28.074Z,100.00
2022-09-21T07:31:00.750Z,100.00
2022-09-21T07:33:36.043Z,100.00
2022-09-21T07:36:11.897Z,100.00
2022-09-21T07:38:45.350Z,100.00
2022-09-21T07:41:17.254Z,100.00
2022-09-21T07:43:49.043Z,100.00
2022-09-21T07:46:20.919Z,100.00
2022-09-21T07:48:55.908Z,100.00
2022-09-21T07:51:27.815Z,100.00
2022-09-21T07:53:59.675Z,100.00
2022-09-21T07:56:31.556Z,100.00
2022-09-21T07:59:10.143Z,100.00
2022-09-21T08:01:43.030Z,100.00
2022-09-21T08:04:14.941Z,100.00
2022-09-21T08:06:49.753Z,100.00
2022-09-21T08:09:21.580Z,100.00
2022-09-21T08:11:55.806Z,100.00
2022-09-21T08:14:27.862Z,100.00
2022-09-21T08:16:59.993Z,100.00
2022-09-21T08:19:33.268Z,99.98
2022-09-21T08:22:05.386Z,99.99
2022-09-21T08:24:37.701Z,100.00
2022-09-21T08:27:10.059Z,100.00
2022-09-21T08:29:54.944Z,98.73
2022-09-21T08:32:49.516Z,98.21
2022-09-21T08:35:19.153Z,98.53
2022-09-21T08:37:54.382Z,98.19
2022-09-21T08:40:26.446Z,97.10
2022-09-21T08:43:05.223Z,97.27
2022-09-21T08:45:44.032Z,94.52
2022-09-21T08:48:26.814Z,94.64
2022-09-21T08:51:05.847Z,96.08
2022-09-21T08:53:40.336Z,95.56
2022-09-21T08:56:14.379Z,94.81
2022-09-21T08:58:46.617Z,93.65
2022-09-21T09:01:32.827Z,93.68
2022-09-21T09:04:27.972Z,92.91
2022-09-21T09:07:14.162Z,90.68
2022-09-21T09:10:07.228Z,92.00
2022-09-21T09:12:53.498Z,93.05
2022-09-21T09:15:48.959Z,90.92
2022-09-21T09:18:55.665Z,91.48
2022-09-21T09:21:34.320Z,90.66
2022-09-21T09:24:12.684Z,89.29
2022-09-21T09:26:50.079Z,87.93
2022-09-21T09:29:30.271Z,88.00
2022-09-21T09:32:03.257Z,88.34
2022-09-21T09:34:39.293Z,87.77
2022-09-21T09:37:15.899Z,88.04
2022-09-21T09:39:55.321Z,87.60
2022-09-21T09:42:43.862Z,87.82
2022-09-21T09:45:32.086Z,88.20
2022-09-21T09:48:24.485Z,87.51
2022-09-21T09:50:56.420Z,87.02
2022-09-21T09:53:29.735Z,86.39
2022-09-21T09:56:03.145Z,85.57
2022-09-21T09:58:43.086Z,85.73
2022-09-21T10:01:40.225Z,84.93
2022-09-21T10:04:15.784Z,85.66
2022-09-21T10:06:48.112Z,85.93
2022-09-21T10:09:28.241Z,85.33
2022-09-21T10:12:02.345Z,83.97
2022-09-21T10:14:37.730Z,84.01
2022-09-21T10:17:17.397Z,84.08
2022-09-21T10:19:49.265Z,83.74
2022-09-21T10:22:23.786Z,84.29
2022-09-21T10:24:59.223Z,84.03
2022-09-21T10:27:35.086Z,84.28
2022-09-21T10:30:30.761Z,82.97
2022-09-21T10:33:02.906Z,81.90
2022-09-21T10:35:49.367Z,80.90
2022-09-21T10:38:27.511Z,81.64
2022-09-21T10:40:59.720Z,81.47
2022-09-21T10:43:39.804Z,81.43
2022-09-21T10:46:15.248Z,80.49
2022-09-21T10:48:49.064Z,79.48
2022-09-21T10:51:31.594Z,80.10
2022-09-21T10:54:09.208Z,80.09
2022-09-21T10:56:54.000Z,78.87
2022-09-21T10:59:28.676Z,80.01
2022-09-21T11:02:02.034Z,78.57
2022-09-21T11:04:40.817Z,78.53
2022-09-21T11:07:20.888Z,79.50
2022-09-21T11:09:59.292Z,79.20
2022-09-21T11:12:44.397Z,79.05
2022-09-21T11:15:26.342Z,79.10
2022-09-21T11:18:06.749Z,78.09
2022-09-21T11:20:47.676Z,76.96
2022-09-21T11:23:34.806Z,77.63
2022-09-21T11:26:13.973Z,78.63
2022-09-21T11:28:53.107Z,79.61
2022-09-21T11:31:42.966Z,80.21
2022-09-21T11:34:38.049Z,80.73
2022-09-21T11:37:19.956Z,81.86
2022-09-21T11:40:08.934Z,82.25
2022-09-21T11:42:55.864Z,82.17
2022-09-21T11:45:50.616Z,81.41
2022-09-21T11:48:31.897Z,82.29
2022-09-21T11:51:20.481Z,81.98
2022-09-21T11:54:15.348Z,82.04
2022-09-21T11:56:54.186Z,81.92
2022-09-21T11:59:46.897Z,82.40
2022-09-21T12:02:37.298Z,83.77
2022-09-21T12:05:21.068Z,84.22
2022-09-21T12:08:11.977Z,84.74
2022-09-21T12:10:56.218Z,85.19
2022-09-21T12:13:34.931Z,85.01
2022-09-21T12:16:14.237Z,84.91
2022-09-21T12:18:51.497Z,84.52
2022-09-21T12:21:26.980Z,85.02
2022-09-21T12:24:03.268Z,85.61
2022-09-21T12:26:40.382Z,86.43
2022-09-21T12:29:18.602Z,86.12
2022-09-21T12:32:00.826Z,86.45
2022-09-21T12:34:41.133Z,85.69
2022-09-21T12:37:18.661Z,85.85
2022-09-21T12:39:59.439Z,85.36
2022-09-21T12:42:41.270Z,85.42
2022-09-21T12:45:24.162Z,85.31
2022-09-21T12:48:02.634Z,85.36
2022-09-21T12:50:44.453Z,85.18
2022-09-21T12:53:19.985Z,84.38
2022-09-21T12:56:01.385Z,83.86
2022-09-21T12:59:27.716Z,83.16
2022-09-21T13:02:22.977Z,82.95
2022-09-21T13:06:19.246Z,82.76
2022-09-21T13:08:53.117Z,82.89
2022-09-21T13:11:26.185Z,82.82
2022-09-21T13:14:01.707Z,82.98
2022-09-21T13:16:36.788Z,81.51
2022-09-21T13:19:24.463Z,82.32
2022-09-21T13:22:19.059Z,82.46
2022-09-21T13:25:03.679Z,80.44
2022-09-21T13:28:13.985Z,79.44
2022-09-21T13:30:48.324Z,79.64
2022-09-21T13:33:40.537Z,79.08
2022-09-21T13:36:33.458Z,78.15
2022-09-21T13:39:22.050Z,78.85
2022-09-21T13:42:03.260Z,77.86
2022-09-21T13:44:46.447Z,77.30
2022-09-21T13:47:31.894Z,74.95
2022-09-21T13:50:13.506Z,73.89
2022-09-21T13:52:52.114Z,75.05
2022-09-21T13:55:29.374Z,75.46
2022-09-21T13:58:06.000Z,73.57
2022-09-21T14:00:42.194Z,74.59
2022-09-21T14:03:25.544Z,71.59
2022-09-21T14:06:02.276Z,72.36
2022-09-21T14:08:37.727Z,71.55
2022-09-21T14:11:22.650Z,70.66
2022-09-21T14:14:09.634Z,70.42
2022-09-21T14:16:55.831Z,71.05
2022-09-21T14:20:06.975Z,72.27
2022-09-21T14:22:41.991Z,70.96
2022-09-21T14:25:49.062Z,69.99
2022-09-21T14:28:28.602Z,71.02
2022-09-21T14:31:06.263Z,70.84
2022-09-21T14:33:48.407Z,70.25
2022-09-21T14:36:27.704Z,69.60
2022-09-21T14:39:04.792Z,69.33
2022-09-21T14:41:43.192Z,67.58
2022-09-21T14:44:21.810Z,68.62
2022-09-21T14:47:09.619Z,67.32
2022-09-21T14:50:14.343Z,67.25
2022-09-21T14:52:59.938Z,66.41
2022-09-21T14:55:44.913Z,67.06
2022-09-21T14:58:34.366Z,66.99
2022-09-21T15:01:36.126Z,65.65
2022-09-21T15:04:26.407Z,64.85
2022-09-21T15:07:27.585Z,64.84
2022-09-21T15:10:33.282Z,64.52
2022-09-21T15:13:20.540Z,64.80
2022-09-21T15:16:09.478Z,64.59
2022-09-21T15:18:46.912Z,66.00
2022-09-21T15:21:27.312Z,66.07
2022-09-21T15:24:00.254Z,65.81
2022-09-21T15:26:34.606Z,66.02
2022-09-21T15:29:09.981Z,66.46
2022-09-21T15:31:43.687Z,67.51
2022-09-21T15:34:17.864Z,68.30
2022-09-21T15:36:51.952Z,69.04
2022-09-21T15:39:27.584Z,69.69
2022-09-21T15:42:17.988Z,69.71
2022-09-21T15:44:52.023Z,70.32
2022-09-21T15:47:28.512Z,70.34
2022-09-21T15:50:00.319Z,71.26
2022-09-21T15:52:37.970Z,71.94
2022-09-21T15:55:18.012Z,72.07
2022-09-21T15:57:57.303Z,72.09
2022-09-21T16:00:32.525Z,72.37
2022-09-21T16:03:09.865Z,72.46
2022-09-21T16:05:50.687Z,72.87
2022-09-21T16:08:30.334Z,73.26
2022-09-21T16:11:33.105Z,73.25
2022-09-21T16:14:30.750Z,72.96
2022-09-21T16:17:23.631Z,73.31
2022-09-21T16:20:16.306Z,73.23
2022-09-21T16:22:50.280Z,73.80
2022-09-21T16:25:43.106Z,74.66
2022-09-21T16:28:36.707Z,75.43
2022-09-21T16:31:33.083Z,76.09
2022-09-21T16:34:07.621Z,76.46
2022-09-21T16:36:46.810Z,76.56
2022-09-21T16:39:22.975Z,77.20
2022-09-21T16:42:04.473Z,77.47
2022-09-21T16:44:45.688Z,77.67
2022-09-21T16:47:22.962Z,77.95
2022-09-21T16:49:56.964Z,78.32
2022-09-21T16:52:30.132Z,78.43
2022-09-21T16:55:02.250Z,78.63
2022-09-21T16:57:34.150Z,78.94
2022-09-21T17:00:13.321Z,79.15
2022-09-21T17:02:45.466Z,79.22
2022-09-21T17:05:19.447Z,79.50
2022-09-21T17:07:57.304Z,79.95
2022-09-21T17:10:33.228Z,80.08
2022-09-21T17:13:07.796Z,80.30
2022-09-21T17:15:44.707Z,80.48
2022-09-21T17:18:17.234Z,80.87
2022-09-21T17:20:49.606Z,81.09
2022-09-21T17:23:27.656Z,81.23
2022-09-21T17:25:59.838Z,81.69
2022-09-21T17:28:32.608Z,81.97
2022-09-21T17:31:07.129Z,82.24
2022-09-21T17:33:39.066Z,82.28
2022-09-21T17:36:14.837Z,82.46
2022-09-21T17:38:47.457Z,82.72
2022-09-21T17:41:25.572Z,82.91
2022-09-21T17:44:08.718Z,83.25
2022-09-21T17:46:49.435Z,83.40
2022-09-21T17:49:22.489Z,83.56
2022-09-21T17:52:13.747Z,83.69
2022-09-21T17:54:47.969Z,84.13
2022-09-21T17:57:34.149Z,84.21
2022-09-21T18:01:14.554Z,84.50
2022-09-21T18:03:41.355Z,84.56
2022-09-21T18:06:15.305Z,84.90
2022-09-21T18:08:48.071Z,84.98
2022-09-21T18:11:45.991Z,85.19
2022-09-21T18:14:28.749Z,85.37
2022-09-21T18:17:15.112Z,85.55
2022-09-21T18:20:01.250Z,85.71
2022-09-21T18:22:43.024Z,85.74
2022-09-21T18:25:22.302Z,85.83
2022-09-21T18:27:57.891Z,86.07
2022-09-21T18:30:30.500Z,86.37
2022-09-21T18:33:26.417Z,86.41
2022-09-21T18:36:15.582Z,86.55
2022-09-21T18:38:59.019Z,86.72
2022-09-21T18:41:39.724Z,86.97
2022-09-21T18:44:20.297Z,87.02
2022-09-21T18:47:04.846Z,87.04
2022-09-21T18:49:48.982Z,87.01
2022-09-21T18:52:31.837Z,87.21
2022-09-21T18:55:12.973Z,87.32
2022-09-21T18:57:46.148Z,87.29
2022-09-21T19:00:21.223Z,87.38
2022-09-21T19:03:15.734Z,87.33
2022-09-21T19:05:54.775Z,87.78
2022-09-21T19:08:34.493Z,87.81
2022-09-21T19:11:14.543Z,87.67
2022-09-21T19:13:59.582Z,87.84
2022-09-21T19:16:35.853Z,88.15
2022-09-21T19:19:23.877Z,88.38
2022-09-21T19:22:01.320Z,88.64
2022-09-21T19:24:39.576Z,88.52
2022-09-21T19:27:22.563Z,88.71
2022-09-21T19:30:04.552Z,88.84
2022-09-21T19:32:44.962Z,89.01
2022-09-21T19:35:22.811Z,89.25
2022-09-21T19:37:56.637Z,89.10
2022-09-21T19:40:32.458Z,89.63
2022-09-21T19:43:24.027Z,89.77
2022-09-21T19:46:07.337Z,90.09
2022-09-21T19:48:45.306Z,90.22
2022-09-21T19:51:20.903Z,90.07
2022-09-21T19:54:15.074Z,90.11
2022-09-21T19:57:08.914Z,90.16
2022-09-21T19:59:44.494Z,90.01
2022-09-21T20:02:21.328Z,89.87
2022-09-21T20:04:56.991Z,89.85
2022-09-21T20:07:40.688Z,89.68
2022-09-21T20:10:46.367Z,89.67
2022-09-21T20:13:28.123Z,89.77
2022-09-21T20:16:09.310Z,89.99
2022-09-21T20:18:46.444Z,90.06
2022-09-21T20:21:22.306Z,89.97
2022-09-21T20:24:00.535Z,90.19
2022-09-21T20:26:33.301Z,90.22
2022-09-21T20:29:09.427Z,90.18
2022-09-21T20:31:41.454Z,90.16
2022-09-21T20:34:13.414Z,90.17
2022-09-21T20:36:45.136Z,90.28
2022-09-21T20:39:16.937Z,90.38
2022-09-21T20:41:48.818Z,90.31
2022-09-21T20:44:22.096Z,90.44
2022-09-21T20:46:54.097Z,90.77
2022-09-21T20:49:26.042Z,90.60
2022-09-21T20:51:59.427Z,90.80
2022-09-21T20:54:31.223Z,90.79
2022-09-21T20:57:03.072Z,90.89
2022-09-21T20:59:34.908Z,90.82
2022-09-21T21:02:07.879Z,90.75
2022-09-21T21:04:40.139Z,90.88
2022-09-21T21:07:12.807Z,91.15
2022-09-21T21:09:44.636Z,90.98
2022-09-21T21:12:19.186Z,90.90
2022-09-21T21:14:54.419Z,90.76
2022-09-21T21:17:26.266Z,90.70
2022-09-21T21:19:58.225Z,90.72
2022-09-21T21:22:30.137Z,90.90
2022-09-21T21:25:01.921Z,90.88
2022-09-21T21:27:33.789Z,90.95
2022-09-21T21:30:08.043Z,90.78
2022-09-21T21:32:39.987Z,91.21
2022-09-21T21:35:12.491Z,90.88
2022-09-21T21:37:44.483Z,91.03
2022-09-21T21:40:16.826Z,91.33
2022-09-21T21:42:48.677Z,91.16
2022-09-21T21:45:21.652Z,91.21
2022-09-21T21:47:55.183Z,91.42
2022-09-21T21:50:27.015Z,91.87
2022-09-21T21:53:01.388Z,92.16
2022-09-21T21:55:33.454Z,92.30
2022-09-21T21:58:05.258Z,92.55
2022-09-21T22:00:37.053Z,92.71
2022-09-21T22:03:08.916Z,92.98
2022-09-21T22:05:41.015Z,92.93
2022-09-21T22:08:12.875Z,93.07
2022-09-21T22:10:52.046Z,93.15
2022-09-21T22:13:24.393Z,93.28
2022-09-21T22:15:56.271Z,93.57
2022-09-21T22:18:29.678Z,93.34
2022-09-21T22:21:05.920Z,93.62
2022-09-21T22:23:38.452Z,93.81
2022-09-21T22:26:13.569Z,93.85
2022-09-21T22:28:47.160Z,93.97
2022-09-21T22:31:20.998Z,93.89
2022-09-21T22:33:53.732Z,93.95
2022-09-21T22:36:28.466Z,93.82
2022-09-21T22:39:00.700Z,94.01
2022-09-21T22:41:35.483Z,94.18
2022-09-21T22:44:07.408Z,94.39
2022-09-21T22:46:39.938Z,94.39
2022-09-21T22:49:11.809Z,94.42
2022-09-21T22:51:46.876Z,94.13
2022-09-21T22:54:21.154Z,94.30
2022-09-21T22:56:52.894Z,94.44
2022-09-21T22:59:24.705Z,94.73
2022-09-21T23:01:56.973Z,94.49
2022-09-21T23:04:29.077Z,94.25
2022-09-21T23:07:01.100Z,94.37
2022-09-21T23:09:32.893Z,94.07
2022-09-21T23:12:05.239Z,94.37
2022-09-21T23:14:37.061Z,94.47
2022-09-21T23:17:08.954Z,94.49
2022-09-21T23:19:40.798Z,94.36
2022-09-21T23:22:12.626Z,94.34
2022-09-21T23:24:44.370Z,94.22
2022-09-21T23:27:16.128Z,94.14
2022-09-21T23:29:47.956Z,94.06
2022-09-21T23:32:19.883Z,94.15
2022-09-21T23:34:51.810Z,94.28
2022-09-21T23:37:23.599Z,94.28
2022-09-21T23:39:55.487Z,94.20
2022-09-21T23:42:27.421Z,94.01
2022-09-21T23:44:59.282Z,93.91
2022-09-21T23:47:31.076Z,93.98
2022-09-21T23:50:03.217Z,94.28
2022-09-21T23:52:35.039Z,94.22
2022-09-21T23:55:07.808Z,94.04
2022-09-21T23:57:39.924Z,94.13
